Terminal Aerodrome Forecast
Issued by NWS

Home | Current Version | Previous Version | Text Only | Print | Product List | Glossary On
Versions: 1 2 3 4 5 6 7 8 9 10 11 12 13
000
FTUS41 KCAR 170538
TAFPQI
TAF
KPQI 170538Z 1706/1806 VRB02KT P6SM BKN110
     FM171200 VRB03KT 6SM -SN OVC035
     FM171600 15004KT 6SM -SN BKN015 OVC070
     FM172300 VRB03KT 2SM -SN OVC015=

USA.gov is the U.S. government's official web portal to all federal, state and local government web resources and services.